Flight Track Log - Related Links

Times and Time Zones

All times are in EDT time to prevent confusion due to time zone crossing. See the N101MA flight status page for this flight to view local times or setup timezone preferences in your user account.

Time Position Orientation Groundspeed Altitude Reporting Facility
EDT Latitude Longitude Course Direction KTS MPH feet Rate Location/Type
Fri 10:20:06 PM 44.8739 -70.8994 253° West 176 203 8,500  Level Boston Center
Fri 10:21:06 PM 44.8350 -70.9503 223° Southwest 182 209 8,500 50 Level Boston Center
Fri 10:22:06 PM 44.7981 -70.9981 223° Southwest 187 215 8,600  Climbing Boston Center
Fri 10:23:06 PM 44.7653 -71.0425 224° Southwest 187 215 8,500  Descending Boston Center
Fri 10:24:06 PM 44.7283 -71.0872 221° Southwest 187 215 8,600  Climbing Boston Center
Fri 10:25:06 PM 44.6936 -71.1319 222° Southwest 187 215 8,500 -50 Descending Boston Center
Fri 10:26:06 PM 44.6586 -71.1822 226° Southwest 187 215 8,500  Level Boston Center
Fri 10:27:06 PM 44.6217 -71.2297 222° Southwest 187 215 8,500  Level Boston Center
Fri 10:28:06 PM 44.5825 -71.2772 221° Southwest 187 215 8,500 50 Level Boston Center
Fri 10:29:06 PM 44.5456 -71.3275 224° Southwest 187 215 8,600  Climbing Boston Center
Fri 10:30:06 PM 44.5064 -71.3747 221° Southwest 187 215 8,500  Descending Boston Center
Fri 10:31:06 PM 44.4694 -71.4219 222° Southwest 187 215 8,600 50 Climbing Boston Center
Fri 10:32:06 PM 44.4344 -71.4750 227° Southwest 187 215 8,600  Level Boston Center
Fri 10:33:06 PM 44.3994 -71.5219 224° Southwest 187 215 8,600 -50 Level Boston Center
Fri 10:34:06 PM 44.3600 -71.5689 220° Southwest 187 215 8,500  Descending Boston Center
Fri 10:35:06 PM 44.3208 -71.6189 222° Southwest 187 215 8,600 50 Climbing Boston Center
Fri 10:36:06 PM 44.2858 -71.6658 224° Southwest 187 215 8,600  Level Boston Center
Fri 10:37:30 PM 44.2342 -71.7303 222° Southwest 187 215 8,600  Level Boston Center
Fri 10:38:30 PM 44.1947 -71.7769 220° Southwest 187 215 8,600  Level Boston Center
Fri 10:39:30 PM 44.1575 -71.8239 222° Southwest 187 215 8,600  Level Boston Center
Fri 10:40:30 PM 44.1225 -71.8703 224° Southwest 187 215 8,600 -50 Level Boston Center
Fri 10:41:30 PM 44.0850 -71.9142 220° Southwest 187 215 8,500  Descending Boston Center
Fri 10:42:30 PM 44.0500 -71.9606 224° Southwest 187 215 8,600 50 Climbing Boston Center
Fri 10:43:30 PM 44.0106 -72.0100 222° Southwest 187 215 8,600  Level Boston Center
Fri 10:44:30 PM 43.9731 -72.0594 224° Southwest 187 215 8,600  Level Boston Center
Fri 10:45:30 PM 43.9378 -72.1056 223° Southwest 187 215 8,600  Level Boston Center
Fri 10:46:30 PM 43.8983 -72.1461 217° Southwest 187 215 8,600  Level Boston Center
Fri 10:47:30 PM 43.8631 -72.1983 227° Southwest 187 215 8,600  Level Boston Center
Fri 10:48:30 PM 43.8236 -72.2417 218° Southwest 187 215 8,600 -50 Level Boston Center
Fri 10:49:30 PM 43.7883 -72.2878 223° Southwest 187 215 8,500  Descending Boston Center
Fri 10:50:30 PM 43.7508 -72.3367 223° Southwest 187 215 8,600 50 Climbing Boston Center
Fri 10:51:30 PM 43.7133 -72.3825 221° Southwest 187 215 8,600 -50 Level Boston Center
Fri 10:52:30 PM 43.6758 -72.4286 222° Southwest 187 215 8,500  Descending Boston Center
Fri 10:53:30 PM 43.6361 -72.4744 220° Southwest 187 215 8,600  Climbing Boston Center
Fri 10:54:30 PM 43.6008 -72.5203 223° Southwest 187 215 8,500  Descending Boston Center
Fri 10:55:30 PM 43.5633 -72.5661 222° Southwest 187 215 8,600  Climbing Boston Center
Fri 10:56:30 PM 43.5256 -72.6119 221° Southwest 187 215 8,500 -50 Descending Boston Center
Fri 10:57:30 PM 43.4858 -72.6606 222° Southwest 187 215 8,500  Level Boston Center
Fri 10:58:30 PM 43.4483 -72.7061 221° Southwest 187 215 8,500  Level Boston Center
Fri 10:59:30 PM 43.4108 -72.7544 223° Southwest 187 215 8,500  Level Boston Center
Fri 11:00:17 PM 43.3772 -72.7942 221° Southwest 181 208 8,500  Level Boston Center
Fri 11:01:30 PM 43.3356 -72.8456 222° Southwest 187 215 8,500  Level Boston Center
Fri 11:02:18 PM 43.2978 -72.8850 217° Southwest 182 209 8,500  Level Boston Center
Fri 11:03:19 PM 43.2622 -72.9306 223° Southwest 184 212 8,500 -49 Level Boston Center
Fri 11:04:20 PM 43.2244 -72.9786 223° Southwest 184 212 8,400 -50 Descending Boston Center
Fri 11:05:20 PM 43.1806 -73.0267 219° Southwest 182 209 8,400 50 Level Boston Center
Fri 11:06:21 PM 43.1447 -73.0719 223° Southwest 180 207 8,500 49 Climbing Boston Center
Fri 11:07:22 PM 43.1069 -73.1197 223° Southwest 179 206 8,500  Level Boston Center
Fri 11:08:22 PM 43.0692 -73.1647 221° Southwest 180 207 8,500 -50 Level Boston Center
Fri 11:09:23 PM 43.0314 -73.2069 219° Southwest 181 208 8,400 -50 Descending Boston Center
Fri 11:10:23 PM 42.9936 -73.2547 223° Southwest 181 208 8,400  Level Boston Center
Fri 11:11:24 PM 42.9558 -73.2997 221° Southwest 181 208 8,400 47 Level Boston Center
Fri 11:12:30 PM 42.9136 -73.3500 221° Southwest 187 215 8,500  Climbing Boston Center
Fri 11:13:25 PM 42.8778 -73.3919 221° Southwest 182 209 8,400 -50 Descending Boston Center
Fri 11:14:30 PM 42.8378 -73.4394 221° Southwest 187 215 8,400  Level Boston Center
Fri 11:15:26 PM 42.8019 -73.4842 222° Southwest 182 209 8,400  Level Boston Center
Fri 11:16:27 PM 42.7642 -73.5289 221° Southwest 183 211 8,400 49 Level Boston Center
Fri 11:17:28 PM 42.7239 -73.5761 221° Southwest 183 211 8,500  Climbing Boston Center
Fri 11:18:28 PM 42.6861 -73.6208 221° Southwest 184 212 8,400  Descending Boston Center
Fri 11:19:29 PM 42.6503 -73.6653 222° Southwest 184 212 8,500 49 Climbing Boston Center
Fri 11:20:30 PM 42.6081 -73.7122 219° Southwest 182 209 8,500 -33 Level Boston Center
Fri 11:22:31 PM 42.5278 -73.8064 221° Southwest 184 212 8,400  Descending Boston Center
Fri 11:23:31 PM 42.4894 -73.8533 222° Southwest 185 213 8,500  Climbing Boston Center
Fri 11:24:32 PM 42.4514 -73.8978 221° Southwest 189 217 8,400 -56 Descending Boston Center
Fri 11:25:18 PM 42.4261 -73.9253 219° Southwest 191 220 8,400  Level Boston Center
Fri 11:26:18 PM 42.3817 -73.9719 218° Southwest 191 220 8,400 50 Level Boston Center
Fri 11:27:18 PM 42.3456 -74.0161 222° Southwest 201 231 8,500 50 Climbing Boston Center
Fri 11:28:18 PM 42.3033 -74.0656 221° Southwest 201 231 8,500  Level Boston Center
Fri 11:29:18 PM 42.2694 -74.1067 222° Southwest 190 219 8,500  Level Boston Center
Fri 11:30:18 PM 42.2269 -74.1558 221° Southwest 185 213 8,500  Level Boston Center
Fri 11:31:18 PM 42.1931 -74.1944 220° Southwest 185 213 8,500 -50 Level Boston Center
Fri 11:32:18 PM 42.1483 -74.2433 219° Southwest 185 213 8,400  Descending Boston Center
Fri 11:33:18 PM 42.1144 -74.2844 222° Southwest 185 213 8,500 50 Climbing Boston Center
Fri 11:34:18 PM 42.0719 -74.3364 222° Southwest 185 213 8,500 -50 Level Boston Center
Fri 11:35:18 PM 42.0358 -74.3744 218° Southwest 190 219 8,400 -50 Descending Boston Center
Fri 11:36:18 PM 41.9933 -74.4261 222° Southwest 185 213 8,400  Level Boston Center
Fri 11:37:18 PM 41.9550 -74.4669 218° Southwest 190 219 8,400  Level Boston Center
Fri 11:38:18 PM 41.9125 -74.5158 221° Southwest 190 219 8,400  Level Boston Center
Fri 11:39:18 PM 41.8761 -74.5564 220° Southwest 190 219 8,400 50 Level Boston Center
Fri 11:40:18 PM 41.8336 -74.6078 222° Southwest 185 213 8,500 50 Climbing Boston Center
Fri 11:41:18 PM 41.7994 -74.6458 220° Southwest 190 219 8,500 -50 Level Boston Center
Fri 11:42:18 PM 41.7547 -74.6969 220° Southwest 190 219 8,400 -50 Descending Boston Center
Fri 11:43:18 PM 41.7264 -74.7517 235° Southwest 190 219 8,400 50 Level Boston Center
Fri 11:44:18 PM 41.7042 -74.8258 248° West 196 226 8,500 100 Climbing Boston Center
Fri 11:46:00 PM 41.6333 -74.8958 223° Southwest  Level Estimated
Fri 11:53:00 PM 41.3210 -75.1497 225° Southwest  Level FlightAware Approximate
Fri 11:54:00 PM 41.2801 -75.2014 223° Southwest  Level Estimated
Fri 11:55:00 PM 41.2391 -75.2529 223° Southwest  Level Estimated
Fri 11:56:00 PM 41.1981 -75.3044 223° Southwest  Level Estimated
Fri 11:57:00 PM 41.1570 -75.3559 223° Southwest  Level Estimated
Fri 11:58:00 PM 41.1377 -75.3801 223° Southwest  Level Estimated
Fri 11:59:00 PM 41.1377 -75.3801 37° Northeast  Level Estimated
Sat 12:00:00 AM 41.1377 -75.3801 37° Northeast  Level Estimated
Sat 12:01:00 AM 41.1377 -75.3801 37° Northeast  Level Estimated
Sat 12:02:00 AM 41.1377 -75.3801 37° Northeast  Level Estimated
Sat 12:03:00 AM 41.1377 -75.3801 37° Northeast  Level Estimated
Sat 12:04:00 AM 41.1377 -75.3801 37° Northeast  Level Estimated
Sat 12:05:00 AM 41.1377 -75.3801 37° Northeast  Level Estimated
Sat 12:06:00 AM 41.1377 -75.3801 37° Northeast  Level Estimated
Sat 12:07:00 AM 41.1377 -75.3801 37° Northeast  Level Estimated
Sat 12:08:00 AM 41.1377 -75.3801 37° Northeast  Level Estimated
Sat 12:09:00 AM 41.1377 -75.3801 37° Northeast  Level Estimated
Sat 12:10:00 AM 41.1377 -75.3801 37° Northeast  Level Estimated

Login

Don't have an account? Register now (free) for customized features, flight alerts, and more!